createdAt,value
2022-08-10T00:01:53.941Z,13.30
2022-08-10T00:04:24.541Z,13.23
2022-08-10T00:06:52.704Z,13.23
2022-08-10T00:09:19.645Z,13.09
2022-08-10T00:11:46.315Z,13.06
2022-08-10T00:14:13.002Z,12.99
2022-08-10T00:16:39.704Z,12.96
2022-08-10T00:19:06.436Z,12.99
2022-08-10T00:21:33.043Z,12.92
2022-08-10T00:23:59.668Z,12.87
2022-08-10T00:26:26.539Z,12.75
2022-08-10T00:29:13.119Z,12.97
2022-08-10T00:31:57.813Z,12.90
2022-08-10T00:34:27.449Z,12.96
2022-08-10T00:36:54.478Z,12.96
2022-08-10T00:39:21.490Z,12.97
2022-08-10T00:42:06.659Z,12.96
2022-08-10T00:44:43.006Z,12.67
2022-08-10T00:47:35.574Z,12.68
2022-08-10T00:49:57.512Z,12.76
2022-08-10T00:52:25.303Z,12.70
2022-08-10T00:54:52.614Z,12.68
2022-08-10T00:57:19.509Z,12.44
2022-08-10T00:59:57.730Z,12.61
2022-08-10T01:02:27.090Z,12.61
2022-08-10T01:05:00.342Z,12.48
2022-08-10T01:07:46.017Z,12.36
2022-08-10T01:10:30.188Z,12.52
2022-08-10T01:13:33.943Z,12.27
2022-08-10T01:16:21.438Z,12.26
2022-08-10T01:18:56.392Z,12.39
2022-08-10T01:21:34.863Z,12.39
2022-08-10T01:24:04.253Z,12.18
2022-08-10T01:26:40.531Z,12.15
2022-08-10T01:29:42.409Z,12.25
2022-08-10T01:32:11.733Z,12.24
2022-08-10T01:35:03.302Z,12.17
2022-08-10T01:37:32.678Z,12.16
2022-08-10T01:40:01.561Z,12.21
2022-08-10T01:42:31.326Z,12.23
2022-08-10T01:45:00.997Z,12.18
2022-08-10T01:47:56.670Z,12.13
2022-08-10T01:50:35.882Z,12.11
2022-08-10T01:53:26.476Z,11.99
2022-08-10T01:55:55.099Z,12.13
2022-08-10T01:58:23.266Z,12.01
2022-08-10T02:00:51.869Z,11.98
2022-08-10T02:03:20.066Z,11.94
2022-08-10T02:05:49.858Z,11.90
2022-08-10T02:08:17.897Z,11.98
2022-08-10T02:10:45.691Z,11.98
2022-08-10T02:13:15.464Z,11.94
2022-08-10T02:16:01.358Z,11.83
2022-08-10T02:18:29.981Z,11.78
2022-08-10T02:20:57.733Z,11.74
2022-08-10T02:23:32.758Z,11.74
2022-08-10T02:26:00.851Z,11.78
2022-08-10T02:28:31.367Z,11.84
2022-08-10T02:31:11.417Z,11.66
2022-08-10T02:33:56.894Z,11.64
2022-08-10T02:36:26.919Z,11.74
2022-08-10T02:38:59.037Z,11.76
2022-08-10T02:45:02.450Z,11.64
2022-08-10T02:45:19.860Z,11.73
2022-08-10T02:47:21.839Z,11.72
2022-08-10T02:50:11.014Z,11.76
2022-08-10T02:52:48.339Z,11.79
2022-08-10T02:55:42.867Z,11.63
2022-08-10T02:58:18.389Z,11.42
2022-08-10T03:00:52.180Z,11.64
2022-08-10T03:03:25.715Z,11.60
2022-08-10T03:06:04.769Z,11.48
2022-08-10T03:08:34.578Z,11.51
2022-08-10T03:11:03.223Z,11.48
2022-08-10T03:13:31.253Z,11.44
2022-08-10T03:15:58.832Z,11.44
2022-08-10T03:18:26.053Z,11.29
2022-08-10T03:20:53.526Z,11.23
2022-08-10T03:23:23.486Z,11.25
2022-08-10T03:25:54.948Z,11.38
2022-08-10T03:28:23.167Z,11.41
2022-08-10T03:30:50.223Z,11.35
2022-08-10T03:33:17.562Z,11.26
2022-08-10T03:36:40.004Z,11.22
2022-08-10T03:38:30.931Z,11.32
2022-08-10T03:40:59.458Z,11.23
2022-08-10T03:43:26.825Z,11.24
2022-08-10T03:45:56.692Z,11.16
2022-08-10T03:48:45.236Z,11.07
2022-08-10T03:51:16.329Z,10.96
2022-08-10T03:54:04.281Z,10.98
2022-08-10T03:56:32.447Z,11.19
2022-08-10T03:59:00.901Z,11.03
2022-08-10T04:02:52.871Z,10.92
2022-08-10T04:04:19.263Z,11.03
2022-08-10T04:06:54.710Z,10.92
2022-08-10T04:09:23.213Z,10.93
2022-08-10T04:11:49.945Z,10.96
2022-08-10T04:14:38.413Z,10.93
2022-08-10T04:17:03.379Z,10.94
2022-08-10T04:19:38.140Z,10.96
2022-08-10T04:22:09.030Z,11.10
2022-08-10T04:24:36.820Z,11.11
2022-08-10T04:27:03.674Z,11.06
2022-08-10T04:29:30.573Z,11.08
2022-08-10T04:31:57.285Z,11.09
2022-08-10T04:34:26.908Z,11.02
2022-08-10T04:36:55.493Z,10.97
2022-08-10T04:39:22.541Z,10.95
2022-08-10T04:41:49.534Z,10.97
2022-08-10T04:44:16.269Z,11.05
2022-08-10T04:46:56.234Z,11.15
2022-08-10T04:49:54.769Z,11.16
2022-08-10T04:52:13.521Z,11.25
2022-08-10T04:54:40.412Z,11.29
2022-08-10T04:57:09.188Z,11.16
2022-08-10T04:59:36.169Z,10.99
2022-08-10T05:02:21.304Z,11.02
2022-08-10T05:04:49.792Z,11.28
2022-08-10T05:07:18.483Z,11.50
2022-08-10T05:10:04.039Z,11.68
2022-08-10T05:12:38.298Z,11.97
2022-08-10T05:15:10.743Z,12.17
2022-08-10T05:17:38.262Z,12.56
2022-08-10T05:20:07.667Z,12.96
2022-08-10T05:22:37.050Z,13.28
2022-08-10T05:25:05.266Z,13.45
2022-08-10T05:27:32.438Z,13.74
2022-08-10T05:30:02.139Z,13.93
2022-08-10T05:32:31.453Z,14.11
2022-08-10T05:34:58.384Z,14.30
2022-08-10T05:38:09.314Z,14.46
2022-08-10T05:40:12.802Z,14.44
2022-08-10T05:42:40.281Z,14.54
2022-08-10T05:45:10.390Z,14.39
2022-08-10T05:48:54.953Z,14.62
2022-08-10T05:50:28.162Z,14.49
2022-08-10T05:52:55.189Z,14.74
2022-08-10T05:55:23.657Z,15.23
2022-08-10T05:57:51.873Z,14.92
2022-08-10T06:00:37.081Z,15.28
2022-08-10T06:03:08.567Z,15.75
2022-08-10T06:05:37.493Z,16.02
2022-08-10T06:08:09.309Z,16.13
2022-08-10T06:10:50.867Z,16.54
2022-08-10T06:13:59.502Z,16.32
2022-08-10T06:16:31.500Z,15.98
2022-08-10T06:19:00.030Z,15.65
2022-08-10T06:21:27.846Z,15.83
2022-08-10T06:23:55.592Z,15.77
2022-08-10T06:26:22.416Z,16.64
2022-08-10T06:29:03.312Z,17.06
2022-08-10T06:31:47.041Z,17.17
2022-08-10T06:34:19.803Z,17.02
2022-08-10T06:36:46.911Z,16.38
2022-08-10T06:39:32.453Z,16.34
2022-08-10T06:42:15.831Z,16.80
2022-08-10T06:44:54.922Z,16.94
2022-08-10T06:47:25.910Z,17.20
2022-08-10T06:49:59.930Z,17.84
2022-08-10T06:52:31.853Z,17.79
2022-08-10T06:54:59.790Z,17.93
2022-08-10T06:57:29.173Z,18.13
2022-08-10T06:59:57.052Z,18.28
2022-08-10T07:02:30.500Z,17.70
2022-08-10T07:05:05.858Z,17.49
2022-08-10T07:07:36.242Z,18.38
2022-08-10T07:10:03.123Z,18.75
2022-08-10T07:12:31.582Z,19.39
2022-08-10T07:14:59.712Z,19.54
2022-08-10T07:17:27.772Z,18.63
2022-08-10T07:19:59.099Z,18.55
2022-08-10T07:23:54.598Z,18.65
2022-08-10T07:25:19.417Z,18.78
2022-08-10T07:27:59.160Z,18.88
2022-08-10T07:30:30.965Z,18.71
2022-08-10T07:32:59.270Z,19.37
2022-08-10T07:35:26.916Z,19.01
2022-08-10T07:37:54.957Z,19.43
2022-08-10T07:40:22.846Z,19.52
2022-08-10T07:42:52.934Z,19.50
2022-08-10T07:45:20.175Z,19.40
2022-08-10T07:47:55.072Z,19.66
2022-08-10T07:50:24.758Z,19.90
2022-08-10T07:52:54.604Z,19.58
2022-08-10T07:56:02.184Z,19.42
2022-08-10T07:58:10.520Z,19.68
2022-08-10T08:00:37.912Z,19.66
2022-08-10T08:03:07.636Z,19.75
2022-08-10T08:05:57.734Z,19.47
2022-08-10T08:08:22.048Z,19.66
2022-08-10T08:10:49.346Z,20.10
2022-08-10T08:13:17.603Z,20.17
2022-08-10T08:16:18.595Z,20.25
2022-08-10T08:18:32.757Z,20.24
2022-08-10T08:21:18.985Z,20.35
2022-08-10T08:24:16.129Z,20.79
2022-08-10T08:26:39.353Z,21.03
2022-08-10T08:29:06.330Z,21.31
2022-08-10T08:31:33.263Z,21.14
2022-08-10T08:34:00.921Z,21.16
2022-08-10T08:36:28.150Z,21.69
2022-08-10T08:38:55.742Z,21.20
2022-08-10T08:41:40.840Z,21.55
2022-08-10T08:44:40.030Z,22.21
2022-08-10T08:48:04.167Z,22.15
2022-08-10T08:50:59.511Z,21.88
2022-08-10T08:54:02.595Z,22.48
2022-08-10T08:56:35.769Z,22.39
2022-08-10T08:59:24.255Z,22.34
2022-08-10T09:02:14.396Z,22.42
2022-08-10T09:04:52.842Z,22.03
2022-08-10T09:08:01.079Z,22.32
2022-08-10T09:11:00.613Z,22.72
2022-08-10T09:13:32.399Z,22.63
2022-08-10T09:16:33.319Z,23.34
2022-08-10T09:19:35.015Z,23.87
2022-08-10T09:22:19.413Z,23.39
2022-08-10T09:24:54.898Z,23.42
2022-08-10T09:27:24.706Z,23.04
2022-08-10T09:29:57.288Z,23.80
2022-08-10T09:36:13.601Z,24.00
2022-08-10T09:36:21.930Z,23.76
2022-08-10T09:40:12.375Z,23.74
2022-08-10T09:42:29.146Z,23.67
2022-08-10T09:45:22.053Z,23.72
2022-08-10T09:48:31.211Z,23.65
2022-08-10T09:54:29.080Z,24.21
2022-08-10T09:57:44.121Z,24.20
2022-08-10T10:00:20.227Z,24.20
2022-08-10T10:02:52.794Z,24.15
2022-08-10T10:05:50.512Z,24.16
2022-08-10T10:08:22.199Z,24.22
2022-08-10T10:11:04.262Z,24.19
2022-08-10T10:14:03.466Z,24.42
2022-08-10T10:17:02.194Z,24.30
2022-08-10T10:20:09.820Z,24.36
2022-08-10T10:23:15.304Z,24.92
2022-08-10T10:25:55.460Z,25.03
2022-08-10T10:29:24.883Z,25.19
2022-08-10T10:31:48.952Z,25.03
2022-08-10T10:34:18.924Z,25.09
2022-08-10T10:36:46.300Z,25.02
2022-08-10T10:39:14.924Z,24.80
2022-08-10T10:41:56.027Z,25.01
2022-08-10T10:45:00.782Z,25.07
2022-08-10T10:47:56.113Z,24.95
2022-08-10T10:50:41.832Z,25.32
2022-08-10T10:53:22.113Z,25.27
2022-08-10T10:56:14.450Z,25.64
2022-08-10T10:59:01.052Z,24.77
2022-08-10T11:01:43.303Z,25.50
2022-08-10T11:04:37.661Z,25.57
2022-08-10T11:07:18.303Z,25.62
2022-08-10T11:10:05.099Z,26.18
2022-08-10T11:14:23.228Z,26.69
2022-08-10T11:15:52.681Z,26.13
2022-08-10T11:18:26.151Z,26.35
2022-08-10T11:21:01.501Z,26.49
2022-08-10T11:24:47.376Z,26.58
2022-08-10T11:26:52.200Z,26.00
2022-08-10T11:29:25.681Z,26.39
2022-08-10T11:32:03.972Z,25.91
2022-08-10T11:34:46.843Z,25.66
2022-08-10T11:38:28.407Z,26.40
2022-08-10T11:40:26.991Z,26.74
2022-08-10T11:43:15.523Z,26.41
2022-08-10T11:45:52.434Z,26.27
2022-08-10T11:48:54.904Z,26.24
2022-08-10T11:51:36.030Z,26.39
2022-08-10T11:54:20.131Z,26.21
2022-08-10T11:56:55.376Z,26.63
2022-08-10T11:59:46.442Z,26.26
2022-08-10T12:02:15.405Z,26.02
2022-08-10T12:04:52.149Z,26.02
2022-08-10T12:10:05.209Z,25.78
2022-08-10T12:10:13.475Z,26.04
2022-08-10T12:12:58.964Z,26.21
2022-08-10T12:15:55.888Z,26.74
2022-08-10T12:18:30.169Z,26.54
2022-08-10T12:20:59.540Z,26.25
2022-08-10T12:23:39.319Z,26.12
2022-08-10T12:26:12.281Z,26.30
2022-08-10T12:28:51.275Z,26.24
2022-08-10T12:31:24.171Z,26.32
2022-08-10T12:34:03.150Z,26.45
2022-08-10T12:37:12.111Z,26.49
2022-08-10T12:40:33.421Z,26.51
2022-08-10T12:44:06.655Z,26.40
2022-08-10T12:46:17.541Z,26.13
2022-08-10T12:49:10.390Z,26.37
2022-08-10T12:51:46.912Z,26.49
2022-08-10T12:54:32.965Z,26.36
2022-08-10T12:57:04.339Z,26.29
2022-08-10T12:59:32.022Z,26.27
2022-08-10T13:02:07.710Z,26.23
2022-08-10T13:04:38.167Z,26.29
2022-08-10T13:09:34.598Z,26.74
2022-08-10T13:12:34.923Z,27.00
2022-08-10T13:15:45.918Z,26.82
2022-08-10T13:18:17.734Z,26.99
2022-08-10T13:20:51.332Z,26.53
2022-08-10T13:23:21.912Z,26.42
2022-08-10T13:25:50.841Z,26.74
2022-08-10T13:28:35.380Z,26.75
2022-08-10T13:31:06.931Z,26.81
2022-08-10T13:34:41.782Z,26.95
2022-08-10T13:36:27.977Z,26.41
2022-08-10T13:38:58.980Z,26.37
2022-08-10T13:41:30.938Z,26.11
2022-08-10T13:43:59.521Z,26.45
2022-08-10T13:46:26.720Z,26.73
2022-08-10T13:48:54.783Z,26.53
2022-08-10T13:51:56.660Z,26.40
2022-08-10T13:54:14.709Z,26.20
2022-08-10T13:56:44.802Z,26.49
2022-08-10T13:59:16.280Z,26.38
2022-08-10T14:01:50.454Z,25.76
2022-08-10T14:04:19.615Z,26.07
2022-08-10T14:06:57.111Z,25.94
2022-08-10T14:09:28.464Z,26.13
2022-08-10T14:11:56.379Z,26.26
2022-08-10T14:14:24.800Z,26.22
2022-08-10T14:16:51.992Z,26.32
2022-08-10T14:19:29.405Z,26.40
2022-08-10T14:21:56.391Z,26.62
2022-08-10T14:24:28.588Z,26.66
2022-08-10T14:27:06.270Z,26.75
2022-08-10T14:29:58.680Z,26.11
2022-08-10T14:32:28.293Z,25.51
2022-08-10T14:36:19.808Z,25.86
2022-08-10T14:37:56.780Z,26.09
2022-08-10T14:40:26.956Z,25.44
2022-08-10T14:43:01.810Z,25.38
2022-08-10T14:45:32.112Z,25.39
2022-08-10T14:48:17.942Z,25.56
2022-08-10T14:50:55.921Z,25.85
2022-08-10T14:53:28.619Z,25.76
2022-08-10T14:56:00.975Z,25.80
2022-08-10T14:59:05.535Z,25.77
2022-08-10T15:02:01.150Z,25.28
2022-08-10T15:04:26.549Z,25.14
2022-08-10T15:07:12.215Z,25.42
2022-08-10T15:10:00.102Z,25.46
2022-08-10T15:12:38.439Z,25.59
2022-08-10T15:15:08.621Z,25.73
2022-08-10T15:17:39.715Z,25.57
2022-08-10T15:20:20.239Z,25.64
2022-08-10T15:23:01.701Z,25.48
2022-08-10T15:25:30.374Z,25.54
2022-08-10T15:28:05.655Z,25.39
2022-08-10T15:30:40.416Z,25.09
2022-08-10T15:34:03.270Z,25.24
2022-08-10T15:36:36.982Z,25.44
2022-08-10T15:39:17.194Z,24.86
2022-08-10T15:42:22.842Z,24.87
2022-08-10T15:44:55.922Z,25.11
2022-08-10T15:47:46.198Z,25.27
2022-08-10T15:50:25.852Z,25.09
2022-08-10T15:53:00.828Z,25.22
2022-08-10T15:55:41.095Z,24.99
2022-08-10T15:58:18.923Z,24.79
2022-08-10T16:01:02.273Z,24.50
2022-08-10T16:03:54.420Z,24.24
2022-08-10T16:06:34.853Z,24.03
2022-08-10T16:10:24.842Z,24.08
2022-08-10T16:12:05.901Z,24.01
2022-08-10T16:14:36.022Z,23.95
2022-08-10T16:17:03.654Z,23.82
2022-08-10T16:19:30.728Z,24.02
2022-08-10T16:22:02.185Z,23.96
2022-08-10T16:24:37.900Z,23.67
2022-08-10T16:27:07.599Z,23.68
2022-08-10T16:29:56.039Z,23.70
2022-08-10T16:32:24.719Z,23.57
2022-08-10T16:34:51.701Z,23.44
2022-08-10T16:37:19.156Z,23.46
2022-08-10T16:39:58.470Z,23.46
2022-08-10T16:42:31.548Z,23.39
2022-08-10T16:45:03.590Z,23.24
2022-08-10T16:47:36.949Z,23.20
2022-08-10T16:50:07.338Z,23.20
2022-08-10T16:52:35.076Z,23.25
2022-08-10T16:55:23.856Z,23.06
2022-08-10T16:57:56.972Z,23.11
2022-08-10T17:00:25.190Z,22.99
2022-08-10T17:02:55.406Z,22.90
2022-08-10T17:06:03.576Z,22.67
2022-08-10T17:08:13.690Z,22.79
2022-08-10T17:10:41.818Z,22.63
2022-08-10T17:13:10.449Z,22.53
2022-08-10T17:15:49.720Z,22.34
2022-08-10T17:18:27.694Z,22.29
2022-08-10T17:20:59.748Z,22.14
2022-08-10T17:23:33.419Z,22.14
2022-08-10T17:26:04.221Z,21.90
2022-08-10T17:28:35.350Z,21.80
2022-08-10T17:31:24.010Z,21.64
2022-08-10T17:34:12.199Z,21.54
2022-08-10T17:36:40.021Z,21.47
2022-08-10T17:39:11.761Z,21.29
2022-08-10T17:41:39.229Z,21.11
2022-08-10T17:44:06.811Z,21.08
2022-08-10T17:46:41.382Z,21.01
2022-08-10T17:49:09.652Z,20.86
2022-08-10T17:51:38.762Z,20.68
2022-08-10T17:54:09.209Z,20.65
2022-08-10T17:56:37.665Z,20.60
2022-08-10T17:59:11.951Z,20.27
2022-08-10T18:01:58.719Z,20.31
2022-08-10T18:04:41.233Z,20.36
2022-08-10T18:07:10.447Z,20.24
2022-08-10T18:09:40.499Z,20.19
2022-08-10T18:12:18.010Z,20.07
2022-08-10T18:14:47.842Z,19.84
2022-08-10T18:17:18.773Z,19.86
2022-08-10T18:19:48.651Z,19.78
2022-08-10T18:22:15.930Z,19.71
2022-08-10T18:24:44.764Z,19.70
2022-08-10T18:27:13.312Z,19.64
2022-08-10T18:29:43.279Z,19.63
2022-08-10T18:32:11.818Z,19.49
2022-08-10T18:34:41.600Z,19.38
2022-08-10T18:37:10.368Z,19.34
2022-08-10T18:39:39.477Z,19.32
2022-08-10T18:42:14.191Z,19.29
2022-08-10T18:44:45.222Z,19.31
2022-08-10T18:47:36.513Z,18.99
2022-08-10T18:50:10.371Z,19.01
2022-08-10T18:52:39.252Z,18.83
2022-08-10T18:55:35.337Z,18.80
2022-08-10T18:58:37.883Z,18.93
2022-08-10T19:01:17.850Z,18.82
2022-08-10T19:04:21.945Z,18.65
2022-08-10T19:07:22.905Z,18.62
2022-08-10T19:10:14.761Z,18.50
2022-08-10T19:13:19.297Z,18.45
2022-08-10T19:15:57.017Z,18.38
2022-08-10T19:18:31.094Z,18.32
2022-08-10T19:21:05.083Z,18.08
2022-08-10T19:23:43.305Z,17.88
2022-08-10T19:26:44.130Z,18.00
2022-08-10T19:30:00.871Z,18.11
2022-08-10T19:32:26.293Z,18.09
2022-08-10T19:35:01.466Z,18.14
2022-08-10T19:37:35.639Z,18.28
2022-08-10T19:40:43.513Z,18.30
2022-08-10T19:43:59.423Z,17.91
2022-08-10T19:46:38.113Z,18.10
2022-08-10T19:49:21.332Z,18.05
2022-08-10T19:52:11.031Z,18.05
2022-08-10T19:54:57.093Z,18.00
2022-08-10T19:57:50.229Z,17.88
2022-08-10T20:00:22.743Z,17.76
2022-08-10T20:03:12.077Z,17.91
2022-08-10T20:06:18.181Z,17.75
2022-08-10T20:08:53.219Z,17.78
2022-08-10T20:11:44.253Z,17.72
2022-08-10T20:14:28.107Z,17.72
2022-08-10T20:17:07.140Z,17.62
2022-08-10T20:19:52.713Z,17.51
2022-08-10T20:22:28.736Z,17.65
2022-08-10T20:25:15.607Z,17.52
2022-08-10T20:28:19.840Z,17.42
2022-08-10T20:30:59.231Z,17.28
2022-08-10T20:33:28.569Z,17.28
2022-08-10T20:36:08.583Z,17.46
2022-08-10T20:38:44.098Z,17.49
2022-08-10T20:42:08.260Z,17.32
2022-08-10T20:44:54.004Z,17.43
2022-08-10T20:47:42.554Z,17.34
2022-08-10T20:50:46.221Z,17.40
2022-08-10T20:53:15.847Z,17.29
2022-08-10T20:55:54.718Z,17.40
2022-08-10T20:58:39.841Z,17.25
2022-08-10T21:01:17.553Z,17.18
2022-08-10T21:04:03.511Z,17.15
2022-08-10T21:06:52.377Z,17.01
2022-08-10T21:09:37.501Z,17.04
2022-08-10T21:12:19.021Z,16.98
2022-08-10T21:15:01.267Z,16.93
2022-08-10T21:17:43.173Z,16.89
2022-08-10T21:20:34.406Z,16.77
2022-08-10T21:23:05.843Z,16.69
2022-08-10T21:28:52.239Z,16.55
2022-08-10T21:31:45.882Z,16.61
2022-08-10T21:34:52.111Z,16.65
2022-08-10T21:37:39.815Z,16.47
2022-08-10T21:40:36.198Z,16.41
2022-08-10T21:43:49.689Z,16.51
2022-08-10T21:46:55.101Z,16.50
2022-08-10T21:50:12.196Z,16.34
2022-08-10T21:53:11.295Z,16.33
2022-08-10T21:56:09.659Z,16.06
2022-08-10T21:59:21.568Z,16.30
2022-08-10T22:02:11.434Z,16.28
2022-08-10T22:04:57.808Z,16.20
2022-08-10T22:07:44.599Z,16.13
2022-08-10T22:10:31.202Z,16.06
2022-08-10T22:13:21.461Z,16.18
2022-08-10T22:16:11.971Z,15.87
2022-08-10T22:19:03.655Z,16.05
2022-08-10T22:21:55.565Z,16.12
2022-08-10T22:25:31.771Z,16.00
2022-08-10T22:28:19.121Z,15.95
2022-08-10T22:31:26.946Z,16.54
2022-08-10T22:31:30.922Z,16.13
2022-08-10T22:34:55.628Z,15.91
2022-08-10T22:38:07.589Z,15.89
2022-08-10T22:40:53.358Z,15.86
2022-08-10T22:43:46.719Z,15.98
2022-08-10T22:46:42.511Z,15.90
2022-08-10T22:49:09.534Z,15.84
2022-08-10T22:51:55.433Z,15.91
2022-08-10T22:54:57.860Z,15.98
2022-08-10T22:57:43.248Z,15.87
2022-08-10T23:00:15.842Z,15.89
2022-08-10T23:03:00.814Z,15.85
2022-08-10T23:05:33.593Z,15.73
2022-08-10T23:08:11.405Z,15.95
2022-08-10T23:10:57.554Z,15.84
2022-08-10T23:13:36.907Z,15.74
2022-08-10T23:16:40.402Z,15.76
2022-08-10T23:19:11.738Z,15.50
2022-08-10T23:22:07.522Z,15.55
2022-08-10T23:24:38.822Z,15.54
2022-08-10T23:27:12.266Z,15.63
2022-08-10T23:30:03.668Z,15.57
2022-08-10T23:32:31.953Z,15.51
2022-08-10T23:36:31.881Z,15.66
2022-08-10T23:37:48.578Z,15.39
2022-08-10T23:40:17.067Z,15.35
2022-08-10T23:42:50.459Z,15.34
2022-08-10T23:45:28.087Z,15.41
2022-08-10T23:48:01.202Z,15.34
2022-08-10T23:50:28.796Z,15.45
2022-08-10T23:52:58.931Z,15.51
2022-08-10T23:55:29.065Z,15.52
2022-08-10T23:58:05.885Z,15.50
